sensor_id;sensor_type;location;lat;lon;timestamp;pressure;altitude;pressure_sealevel;temperature;humidity
58690;BME280;44470;53.206;-6.106;2023-04-25T00:00:01;101746.16;;;28.50;30.86
58690;BME280;44470;53.206;-6.106;2023-04-25T00:02:37;101719.06;;;28.28;30.93
58690;BME280;44470;53.206;-6.106;2023-04-25T00:05:03;101754.97;;;28.55;31.02
58690;BME280;44470;53.206;-6.106;2023-04-25T00:07:28;101719.84;;;28.32;30.85
58690;BME280;44470;53.206;-6.106;2023-04-25T00:09:54;101729.59;;;28.36;30.67
58690;BME280;44470;53.206;-6.106;2023-04-25T00:12:19;101768.72;;;28.51;30.86
58690;BME280;44470;53.206;-6.106;2023-04-25T00:14:46;101771.22;;;28.55;30.38
58690;BME280;44470;53.206;-6.106;2023-04-25T00:17:12;101776.75;;;28.52;30.75
58690;BME280;44470;53.206;-6.106;2023-04-25T00:19:37;101782.94;;;28.56;30.34
58690;BME280;44470;53.206;-6.106;2023-04-25T00:22:03;101782.03;;;28.55;30.59
58690;BME280;44470;53.206;-6.106;2023-04-25T00:24:29;101736.06;;;28.32;30.66
58690;BME280;44470;53.206;-6.106;2023-04-25T00:26:54;101769.56;;;28.51;30.40
58690;BME280;44470;53.206;-6.106;2023-04-25T00:29:21;101772.97;;;28.56;30.88
58690;BME280;44470;53.206;-6.106;2023-04-25T00:31:47;101780.03;;;28.61;30.44
58690;BME280;44470;53.206;-6.106;2023-04-25T00:34:12;101729.72;;;28.33;30.68
58690;BME280;44470;53.206;-6.106;2023-04-25T00:36:38;101766.94;;;28.50;30.64
58690;BME280;44470;53.206;-6.106;2023-04-25T00:39:03;101766.75;;;28.54;30.74
58690;BME280;44470;53.206;-6.106;2023-04-25T00:41:30;101764.94;;;28.55;30.66
58690;BME280;44470;53.206;-6.106;2023-04-25T00:43:56;101763.03;;;28.57;30.82
58690;BME280;44470;53.206;-6.106;2023-04-25T00:46:22;101767.56;;;28.56;30.84
58690;BME280;44470;53.206;-6.106;2023-04-25T00:48:48;101771.81;;;28.64;30.86
58690;BME280;44470;53.206;-6.106;2023-04-25T00:51:16;101769.19;;;28.61;30.62
58690;BME280;44470;53.206;-6.106;2023-04-25T00:53:42;101773.78;;;28.58;31.03
58690;BME280;44470;53.206;-6.106;2023-04-25T00:56:08;101772.09;;;28.56;30.98
58690;BME280;44470;53.206;-6.106;2023-04-25T00:58:33;101774.75;;;28.57;31.00
58690;BME280;44470;53.206;-6.106;2023-04-25T01:00:59;101754.03;;;28.56;30.45
58690;BME280;44470;53.206;-6.106;2023-04-25T01:03:33;101774.75;;;28.57;31.04
58690;BME280;44470;53.206;-6.106;2023-04-25T01:06:01;101774.75;;;28.57;30.63
58690;BME280;44470;53.206;-6.106;2023-04-25T01:08:28;101770.34;;;28.55;30.71
58690;BME280;44470;53.206;-6.106;2023-04-25T01:10:53;101773.09;;;28.53;30.94
58690;BME280;44470;53.206;-6.106;2023-04-25T01:13:19;101757.94;;;28.49;30.77
58690;BME280;44470;53.206;-6.106;2023-04-25T01:15:45;101739.59;;;28.34;30.69
58690;BME280;44470;53.206;-6.106;2023-04-25T01:18:11;101773.91;;;28.55;31.03
58690;BME280;44470;53.206;-6.106;2023-04-25T01:20:37;101761.31;;;28.54;30.97
58690;BME280;44470;53.206;-6.106;2023-04-25T01:23:04;101765.78;;;28.55;30.95
58690;BME280;44470;53.206;-6.106;2023-04-25T01:25:31;101718.31;;;28.24;30.54
58690;BME280;44470;53.206;-6.106;2023-04-25T01:27:57;101725.25;;;28.32;30.60
58690;BME280;44470;53.206;-6.106;2023-04-25T01:30:25;101774.81;;;28.56;31.04
58690;BME280;44470;53.206;-6.106;2023-04-25T01:32:54;101770.22;;;28.58;30.45
58690;BME280;44470;53.206;-6.106;2023-04-25T01:35:20;101766.50;;;28.61;30.60
58690;BME280;44470;53.206;-6.106;2023-04-25T01:37:47;101719.84;;;28.32;31.19
58690;BME280;44470;53.206;-6.106;2023-04-25T01:40:12;101771.09;;;28.58;31.01
58690;BME280;44470;53.206;-6.106;2023-04-25T01:42:41;101769.31;;;28.57;30.55
58690;BME280;44470;53.206;-6.106;2023-04-25T01:45:08;101756.03;;;28.51;30.68
58690;BME280;44470;53.206;-6.106;2023-04-25T01:47:35;101763.91;;;28.57;30.64
58690;BME280;44470;53.206;-6.106;2023-04-25T01:50:02;101755.66;;;28.61;30.62
58690;BME280;44470;53.206;-6.106;2023-04-25T01:52:28;101753.03;;;28.59;30.60
58690;BME280;44470;53.206;-6.106;2023-04-25T01:54:54;101758.13;;;28.67;30.18
58690;BME280;44470;53.206;-6.106;2023-04-25T01:57:20;101751.81;;;28.66;30.70
58690;BME280;44470;53.206;-6.106;2023-04-25T01:59:46;101757.25;;;28.66;30.32
58690;BME280;44470;53.206;-6.106;2023-04-25T02:02:30;101752.94;;;28.61;30.20
58690;BME280;44470;53.206;-6.106;2023-04-25T02:04:55;101739.47;;;28.59;30.27
58690;BME280;44470;53.206;-6.106;2023-04-25T02:07:23;101770.78;;;28.66;30.35
58690;BME280;44470;53.206;-6.106;2023-04-25T02:09:51;101757.53;;;28.58;30.25
58690;BME280;44470;53.206;-6.106;2023-04-25T02:12:18;101771.72;;;28.65;30.52
58690;BME280;44470;53.206;-6.106;2023-04-25T02:15:02;101778.91;;;28.66;30.64
58690;BME280;44470;53.206;-6.106;2023-04-25T02:17:36;101779.72;;;28.68;30.32
58690;BME280;44470;53.206;-6.106;2023-04-25T02:20:03;101778.75;;;28.71;30.60
58690;BME280;44470;53.206;-6.106;2023-04-25T02:22:28;101775.22;;;28.69;30.03
58690;BME280;44470;53.206;-6.106;2023-04-25T02:24:55;101768.72;;;28.73;29.95
58690;BME280;44470;53.206;-6.106;2023-04-25T02:27:21;101773.09;;;28.76;30.29
58690;BME280;44470;53.206;-6.106;2023-04-25T02:29:46;101765.88;;;28.76;30.03
58690;BME280;44470;53.206;-6.106;2023-04-25T02:32:12;101770.31;;;28.79;30.11
58690;BME280;44470;53.206;-6.106;2023-04-25T02:34:37;101774.94;;;28.75;29.89
58690;BME280;44470;53.206;-6.106;2023-04-25T02:37:03;101734.56;;;28.47;30.02
58690;BME280;44470;53.206;-6.106;2023-04-25T02:39:28;101774.06;;;28.75;29.75
58690;BME280;44470;53.206;-6.106;2023-04-25T02:41:55;101732.34;;;28.56;29.90
58690;BME280;44470;53.206;-6.106;2023-04-25T02:44:20;101769.44;;;28.77;29.88
58690;BME280;44470;53.206;-6.106;2023-04-25T02:46:46;101768.75;;;28.71;29.92
58690;BME280;44470;53.206;-6.106;2023-04-25T02:49:11;101762.28;;;28.76;29.92
58690;BME280;44470;53.206;-6.106;2023-04-25T02:51:37;101729.78;;;28.53;30.08
58690;BME280;44470;53.206;-6.106;2023-04-25T02:54:03;101762.13;;;28.80;30.29
58690;BME280;44470;53.206;-6.106;2023-04-25T02:56:31;101764.84;;;28.80;29.75
58690;BME280;44470;53.206;-6.106;2023-04-25T02:58:56;101768.50;;;28.79;29.93
58690;BME280;44470;53.206;-6.106;2023-04-25T03:01:22;101770.34;;;28.77;29.63
58690;BME280;44470;53.206;-6.106;2023-04-25T03:03:48;101732.94;;;28.65;30.03
58690;BME280;44470;53.206;-6.106;2023-04-25T03:06:13;101757.75;;;28.76;29.93
58690;BME280;44470;53.206;-6.106;2023-04-25T03:08:40;101771.13;;;28.81;29.85
58690;BME280;44470;53.206;-6.106;2023-04-25T03:11:05;101753.28;;;28.75;29.94
58690;BME280;44470;53.206;-6.106;2023-04-25T03:13:31;101767.63;;;28.77;29.87
58690;BME280;44470;53.206;-6.106;2023-04-25T03:15:57;101757.53;;;28.82;29.76
58690;BME280;44470;53.206;-6.106;2023-04-25T03:18:22;101749.56;;;28.78;30.26
58690;BME280;44470;53.206;-6.106;2023-04-25T03:20:48;101753.88;;;28.83;29.86
58690;BME280;44470;53.206;-6.106;2023-04-25T03:23:13;101729.97;;;28.71;29.48
58690;BME280;44470;53.206;-6.106;2023-04-25T03:25:41;101754.94;;;28.79;29.79
58690;BME280;44470;53.206;-6.106;2023-04-25T03:28:06;101743.16;;;28.80;29.88
58690;BME280;44470;53.206;-6.106;2023-04-25T03:30:32;101753.88;;;28.83;29.82
58690;BME280;44470;53.206;-6.106;2023-04-25T03:32:58;101756.44;;;28.86;30.03
58690;BME280;44470;53.206;-6.106;2023-04-25T03:35:24;101763.06;;;28.79;29.75
58690;BME280;44470;53.206;-6.106;2023-04-25T03:37:50;101775.53;;;28.83;29.54
58690;BME280;44470;53.206;-6.106;2023-04-25T03:40:21;101733.94;;;28.62;29.71
58690;BME280;44470;53.206;-6.106;2023-04-25T03:43:06;101759.41;;;28.80;29.89
58690;BME280;44470;53.206;-6.106;2023-04-25T03:45:33;101778.16;;;28.85;29.81
58690;BME280;44470;53.206;-6.106;2023-04-25T03:47:58;101776.41;;;28.84;29.68
58690;BME280;44470;53.206;-6.106;2023-04-25T03:50:26;101771.00;;;28.84;29.97
58690;BME280;44470;53.206;-6.106;2023-04-25T03:52:52;101773.66;;;28.85;29.67
58690;BME280;44470;53.206;-6.106;2023-04-25T03:55:17;101729.50;;;28.60;29.88
58690;BME280;44470;53.206;-6.106;2023-04-25T03:57:43;101779.06;;;28.85;29.85
58690;BME280;44470;53.206;-6.106;2023-04-25T04:00:09;101764.94;;;28.77;30.20
58690;BME280;44470;53.206;-6.106;2023-04-25T04:02:40;101775.72;;;28.79;29.76
58690;BME280;44470;53.206;-6.106;2023-04-25T04:05:07;101770.13;;;28.83;29.94
58690;BME280;44470;53.206;-6.106;2023-04-25T04:07:36;101749.56;;;28.78;29.72
58690;BME280;44470;53.206;-6.106;2023-04-25T04:10:11;101768.09;;;28.89;29.34
58690;BME280;44470;53.206;-6.106;2023-04-25T04:12:39;101756.75;;;28.79;29.73
58690;BME280;44470;53.206;-6.106;2023-04-25T04:15:06;101768.09;;;28.89;29.66
58690;BME280;44470;53.206;-6.106;2023-04-25T04:17:33;101770.00;;;28.86;29.48
58690;BME280;44470;53.206;-6.106;2023-04-25T04:19:59;101771.63;;;28.91;29.42
58690;BME280;44470;53.206;-6.106;2023-04-25T04:22:25;101765.34;;;28.90;29.45
58690;BME280;44470;53.206;-6.106;2023-04-25T04:24:54;101767.19;;;28.88;29.46
58690;BME280;44470;53.206;-6.106;2023-04-25T04:27:31;101723.94;;;28.64;29.64
58690;BME280;44470;53.206;-6.106;2023-04-25T04:30:13;101723.09;;;28.62;29.55
58690;BME280;44470;53.206;-6.106;2023-04-25T04:32:51;101772.53;;;28.91;29.57
58690;BME280;44470;53.206;-6.106;2023-04-25T04:35:17;101729.28;;;28.66;29.51
58690;BME280;44470;53.206;-6.106;2023-04-25T04:37:42;101772.44;;;28.93;29.82
58690;BME280;44470;53.206;-6.106;2023-04-25T04:40:10;101778.69;;;28.95;29.51
58690;BME280;44470;53.206;-6.106;2023-04-25T04:42:48;101736.25;;;28.71;29.74
58690;BME280;44470;53.206;-6.106;2023-04-25T04:45:24;101772.53;;;28.91;29.84
58690;BME280;44470;53.206;-6.106;2023-04-25T04:48:11;101781.25;;;28.98;29.54
58690;BME280;44470;53.206;-6.106;2023-04-25T04:50:58;101783.22;;;28.94;29.78
58690;BME280;44470;53.206;-6.106;2023-04-25T04:53:43;101782.34;;;28.94;29.69
58690;BME280;44470;53.206;-6.106;2023-04-25T04:56:14;101798.53;;;28.95;29.72
58690;BME280;44470;53.206;-6.106;2023-04-25T04:58:45;101760.47;;;28.76;29.79
58690;BME280;44470;53.206;-6.106;2023-04-25T05:01:34;101796.69;;;28.96;29.64
58690;BME280;44470;53.206;-6.106;2023-04-25T05:04:21;101790.47;;;28.94;29.56
58690;BME280;44470;53.206;-6.106;2023-04-25T05:06:58;101801.25;;;28.95;29.72
58690;BME280;44470;53.206;-6.106;2023-04-25T05:09:27;101799.28;;;28.99;29.57
58690;BME280;44470;53.206;-6.106;2023-04-25T05:12:24;101801.03;;;29.00;29.50
58690;BME280;44470;53.206;-6.106;2023-04-25T05:14:57;101797.59;;;28.96;29.57
58690;BME280;44470;53.206;-6.106;2023-04-25T05:17:41;101772.16;;;28.78;29.48
58690;BME280;44470;53.206;-6.106;2023-04-25T05:20:25;101800.84;;;29.05;29.30
58690;BME280;44470;53.206;-6.106;2023-04-25T05:23:09;101797.66;;;28.95;29.45
58690;BME280;44470;53.206;-6.106;2023-04-25T05:25:53;101795.06;;;28.92;29.58
58690;BME280;44470;53.206;-6.106;2023-04-25T05:28:37;101804.81;;;28.96;29.78
58690;BME280;44470;53.206;-6.106;2023-04-25T05:31:13;101810.06;;;29.00;29.28
58690;BME280;44470;53.206;-6.106;2023-04-25T05:33:52;101781.97;;;28.81;29.68
58690;BME280;44470;53.206;-6.106;2023-04-25T05:36:19;101807.28;;;29.02;29.53
58690;BME280;44470;53.206;-6.106;2023-04-25T05:38:45;101812.78;;;29.00;29.39
58690;BME280;44470;53.206;-6.106;2023-04-25T05:41:13;101760.03;;;28.65;29.85
58690;BME280;44470;53.206;-6.106;2023-04-25T05:43:47;101816.34;;;29.01;29.54
58690;BME280;44470;53.206;-6.106;2023-04-25T05:46:21;101782.97;;;28.78;29.75
58690;BME280;44470;53.206;-6.106;2023-04-25T05:49:04;101813.72;;;28.99;29.81
58690;BME280;44470;53.206;-6.106;2023-04-25T05:51:38;101798.47;;;28.97;29.69
58690;BME280;44470;53.206;-6.106;2023-04-25T05:54:06;101816.22;;;29.04;29.49
58690;BME280;44470;53.206;-6.106;2023-04-25T05:56:33;101795.88;;;28.94;29.72
58690;BME280;44470;53.206;-6.106;2023-04-25T05:58:59;101810.06;;;29.00;29.94
58690;BME280;44470;53.206;-6.106;2023-04-25T06:01:25;101810.69;;;29.07;29.86
58690;BME280;44470;53.206;-6.106;2023-04-25T06:03:50;101812.56;;;29.05;29.62
58690;BME280;44470;53.206;-6.106;2023-04-25T06:06:18;101808.22;;;29.01;29.39
58690;BME280;44470;53.206;-6.106;2023-04-25T06:08:44;101768.50;;;28.79;29.61
58690;BME280;44470;53.206;-6.106;2023-04-25T06:11:11;101815.22;;;29.07;29.40
58690;BME280;44470;53.206;-6.106;2023-04-25T06:13:36;101803.56;;;29.05;29.63
58690;BME280;44470;53.206;-6.106;2023-04-25T06:16:02;101812.44;;;29.08;29.69
58690;BME280;44470;53.206;-6.106;2023-04-25T06:18:28;101807.41;;;28.99;29.75
58690;BME280;44470;53.206;-6.106;2023-04-25T06:20:56;101798.88;;;29.08;29.70
58690;BME280;44470;53.206;-6.106;2023-04-25T06:23:23;101794.38;;;29.09;29.50
58690;BME280;44470;53.206;-6.106;2023-04-25T06:25:56;101798.03;;;29.08;29.60
58690;BME280;44470;53.206;-6.106;2023-04-25T06:28:22;101767.84;;;28.95;29.27
58690;BME280;44470;53.206;-6.106;2023-04-25T06:30:48;101798.69;;;29.13;29.39
58690;BME280;44470;53.206;-6.106;2023-04-25T06:33:17;101802.28;;;29.13;29.55
58690;BME280;44470;53.206;-6.106;2023-04-25T06:35:42;101781.34;;;28.96;29.51
58690;BME280;44470;53.206;-6.106;2023-04-25T06:38:11;101807.00;;;29.08;29.69
58690;BME280;44470;53.206;-6.106;2023-04-25T06:40:38;101795.50;;;29.03;29.43
58690;BME280;44470;53.206;-6.106;2023-04-25T06:43:04;101813.25;;;29.10;29.48
58690;BME280;44470;53.206;-6.106;2023-04-25T06:45:48;101814.16;;;29.11;29.82
58690;BME280;44470;53.206;-6.106;2023-04-25T06:48:14;101801.69;;;29.07;29.53
58690;BME280;44470;53.206;-6.106;2023-04-25T06:50:41;101815.84;;;29.13;29.58
58690;BME280;44470;53.206;-6.106;2023-04-25T06:53:06;101807.91;;;29.09;29.59
58690;BME280;44470;53.206;-6.106;2023-04-25T06:55:35;101816.88;;;29.11;29.69
58690;BME280;44470;53.206;-6.106;2023-04-25T06:58:11;101817.69;;;29.13;29.94
58690;BME280;44470;53.206;-6.106;2023-04-25T07:00:55;101813.94;;;29.15;29.46
58690;BME280;44470;53.206;-6.106;2023-04-25T07:03:22;101818.44;;;29.17;29.48
58690;BME280;44470;53.206;-6.106;2023-04-25T07:05:51;101810.69;;;29.07;29.46
58690;BME280;44470;53.206;-6.106;2023-04-25T07:08:17;101817.72;;;29.11;29.44
58690;BME280;44470;53.206;-6.106;2023-04-25T07:10:42;101810.53;;;29.10;29.72
58690;BME280;44470;53.206;-6.106;2023-04-25T07:13:08;101811.31;;;29.14;29.47
58690;BME280;44470;53.206;-6.106;2023-04-25T07:15:34;101756.72;;;28.80;29.71
58690;BME280;44470;53.206;-6.106;2023-04-25T07:18:00;101788.25;;;29.04;29.37
58690;BME280;44470;53.206;-6.106;2023-04-25T07:20:26;101814.19;;;29.09;29.94
58690;BME280;44470;53.206;-6.106;2023-04-25T07:22:53;101787.94;;;28.89;29.60
58690;BME280;44470;53.206;-6.106;2023-04-25T07:25:19;101815.72;;;29.17;29.62
58690;BME280;44470;53.206;-6.106;2023-04-25T07:27:45;101822.19;;;29.12;29.72
58690;BME280;44470;53.206;-6.106;2023-04-25T07:30:14;101825.50;;;29.21;29.54
58690;BME280;44470;53.206;-6.106;2023-04-25T07:32:40;101836.47;;;29.18;29.64
58690;BME280;44470;53.206;-6.106;2023-04-25T07:35:06;101827.63;;;29.12;29.58
58690;BME280;44470;53.206;-6.106;2023-04-25T07:37:36;101830.34;;;29.12;29.60
58690;BME280;44470;53.206;-6.106;2023-04-25T07:40:17;101826.13;;;29.05;29.10
58690;BME280;44470;53.206;-6.106;2023-04-25T07:42:46;101839.88;;;29.23;29.18
58690;BME280;44470;53.206;-6.106;2023-04-25T07:45:16;101836.38;;;29.19;29.50
58690;BME280;44470;53.206;-6.106;2023-04-25T07:47:41;101839.78;;;29.24;29.06
58690;BME280;44470;53.206;-6.106;2023-04-25T07:50:13;101840.03;;;29.18;29.20
58690;BME280;44470;53.206;-6.106;2023-04-25T07:52:39;101835.53;;;29.19;29.37
58690;BME280;44470;53.206;-6.106;2023-04-25T07:55:14;101840.81;;;29.22;29.19
58690;BME280;44470;53.206;-6.106;2023-04-25T07:57:49;101808.31;;;28.99;29.36
58690;BME280;44470;53.206;-6.106;2023-04-25T08:00:15;101793.44;;;28.88;29.28
58690;BME280;44470;53.206;-6.106;2023-04-25T08:02:45;101836.34;;;29.21;29.28
58690;BME280;44470;53.206;-6.106;2023-04-25T08:05:14;101831.16;;;29.14;29.47
58690;BME280;44470;53.206;-6.106;2023-04-25T08:07:44;101831.78;;;29.21;29.44
58690;BME280;44470;53.206;-6.106;2023-04-25T08:10:10;101830.03;;;29.20;29.48
58690;BME280;44470;53.206;-6.106;2023-04-25T08:12:36;101828.13;;;29.22;29.37
58690;BME280;44470;53.206;-6.106;2023-04-25T08:15:02;101840.69;;;29.25;29.68
58690;BME280;44470;53.206;-6.106;2023-04-25T08:17:32;101834.31;;;29.26;29.72
58690;BME280;44470;53.206;-6.106;2023-04-25T08:19:58;101836.06;;;29.27;29.98
58690;BME280;44470;53.206;-6.106;2023-04-25T08:22:29;101824.69;;;29.19;29.98
58690;BME280;44470;53.206;-6.106;2023-04-25T08:25:12;101813.59;;;29.03;29.78
58690;BME280;44470;53.206;-6.106;2023-04-25T08:27:39;101833.75;;;29.18;29.86
58690;BME280;44470;53.206;-6.106;2023-04-25T08:30:05;101839.06;;;29.21;30.03
58690;BME280;44470;53.206;-6.106;2023-04-25T08:32:31;101837.03;;;29.26;29.92
58690;BME280;44470;53.206;-6.106;2023-04-25T08:35:25;101829.72;;;28.83;30.75
58690;BME280;44470;53.206;-6.106;2023-04-25T08:37:51;101827.19;;;29.01;30.38
58690;BME280;44470;53.206;-6.106;2023-04-25T08:40:17;101844.28;;;29.03;30.66
58690;BME280;44470;53.206;-6.106;2023-04-25T08:42:53;101846.25;;;28.99;30.76
58690;BME280;44470;53.206;-6.106;2023-04-25T08:45:20;101834.31;;;28.57;31.11
58690;BME280;44470;53.206;-6.106;2023-04-25T08:47:47;101829.25;;;28.72;30.73
58690;BME280;44470;53.206;-6.106;2023-04-25T08:50:14;101848.94;;;28.53;30.85
58690;BME280;44470;53.206;-6.106;2023-04-25T08:52:44;101833.31;;;28.12;30.88
58690;BME280;44470;53.206;-6.106;2023-04-25T08:55:12;101797.34;;;27.85;30.65
58690;BME280;44470;53.206;-6.106;2023-04-25T08:57:41;101819.00;;;26.17;32.57
58690;BME280;44470;53.206;-6.106;2023-04-25T09:00:09;101800.19;;;26.12;32.10
58690;BME280;44470;53.206;-6.106;2023-04-25T09:02:42;101850.44;;;26.48;32.45
58690;BME280;44470;53.206;-6.106;2023-04-25T09:05:09;101842.63;;;26.69;31.73
58690;BME280;44470;53.206;-6.106;2023-04-25T09:07:37;101854.03;;;25.84;32.73
58690;BME280;44470;53.206;-6.106;2023-04-25T09:10:03;101838.81;;;26.16;32.14
58690;BME280;44470;53.206;-6.106;2023-04-25T09:12:32;101841.09;;;27.19;32.07
58690;BME280;44470;53.206;-6.106;2023-04-25T09:15:08;101843.00;;;28.20;31.06
58690;BME280;44470;53.206;-6.106;2023-04-25T09:17:58;101838.88;;;28.33;30.98
58690;BME280;44470;53.206;-6.106;2023-04-25T09:20:29;101847.28;;;28.49;30.35
58690;BME280;44470;53.206;-6.106;2023-04-25T09:23:03;101808.97;;;28.36;30.52
58690;BME280;44470;53.206;-6.106;2023-04-25T09:25:35;101848.97;;;28.76;30.16
58690;BME280;44470;53.206;-6.106;2023-04-25T09:28:05;101848.63;;;28.61;29.40
58690;BME280;44470;53.206;-6.106;2023-04-25T09:30:33;101850.69;;;28.54;28.91
58690;BME280;44470;53.206;-6.106;2023-04-25T09:33:29;101845.69;;;26.26;27.49
58690;BME280;44470;53.206;-6.106;2023-04-25T09:36:04;101852.72;;;27.48;28.50
58690;BME280;44470;53.206;-6.106;2023-04-25T09:38:50;101853.88;;;27.93;28.81
58690;BME280;44470;53.206;-6.106;2023-04-25T09:41:27;101817.09;;;27.87;28.74
58690;BME280;44470;53.206;-6.106;2023-04-25T09:43:59;101842.31;;;28.13;29.30
58690;BME280;44470;53.206;-6.106;2023-04-25T09:46:34;101861.19;;;28.40;29.69
58690;BME280;44470;53.206;-6.106;2023-04-25T09:49:06;101858.84;;;28.31;29.63
58690;BME280;44470;53.206;-6.106;2023-04-25T09:51:37;101865.94;;;28.57;29.29
58690;BME280;44470;53.206;-6.106;2023-04-25T09:54:05;101862.91;;;28.42;29.00
58690;BME280;44470;53.206;-6.106;2023-04-25T09:56:44;101830.88;;;28.30;28.67
58690;BME280;44470;53.206;-6.106;2023-04-25T09:59:14;101867.50;;;28.40;29.39
58690;BME280;44470;53.206;-6.106;2023-04-25T10:01:40;101872.47;;;28.51;29.30
58690;BME280;44470;53.206;-6.106;2023-04-25T10:04:22;101790.00;;;28.14;29.49
58690;BME280;44470;53.206;-6.106;2023-04-25T10:06:59;101855.53;;;28.70;28.88
58690;BME280;44470;53.206;-6.106;2023-04-25T10:09:26;101868.53;;;28.84;28.94
58690;BME280;44470;53.206;-6.106;2023-04-25T10:11:53;101837.72;;;28.63;29.24
58690;BME280;44470;53.206;-6.106;2023-04-25T10:14:19;101832.44;;;28.60;29.01
58690;BME280;44470;53.206;-6.106;2023-04-25T10:16:45;101867.53;;;28.86;28.58
58690;BME280;44470;53.206;-6.106;2023-04-25T10:19:10;101878.13;;;28.93;29.03
58690;BME280;44470;53.206;-6.106;2023-04-25T10:24:26;101888.91;;;28.94;28.93
58690;BME280;44470;53.206;-6.106;2023-04-25T10:26:52;101878.94;;;28.95;28.95
58690;BME280;44470;53.206;-6.106;2023-04-25T10:29:25;101875.66;;;28.86;28.17
58690;BME280;44470;53.206;-6.106;2023-04-25T10:31:51;101873.06;;;28.60;29.52
58690;BME280;44470;53.206;-6.106;2023-04-25T10:34:17;101873.41;;;28.74;29.33
58690;BME280;44470;53.206;-6.106;2023-04-25T10:36:49;101877.72;;;28.80;29.12
58690;BME280;44470;53.206;-6.106;2023-04-25T10:39:24;101877.44;;;28.88;29.13
58690;BME280;44470;53.206;-6.106;2023-04-25T10:41:55;101874.47;;;28.94;29.09
58690;BME280;44470;53.206;-6.106;2023-04-25T10:44:21;101844.81;;;28.67;29.31
58690;BME280;44470;53.206;-6.106;2023-04-25T10:46:46;101866.75;;;28.83;28.93
58690;BME280;44470;53.206;-6.106;2023-04-25T10:54:48;101879.88;;;28.94;29.08
58690;BME280;44470;53.206;-6.106;2023-04-25T10:57:46;101815.31;;;28.59;29.25
58690;BME280;44470;53.206;-6.106;2023-04-25T11:00:20;101881.53;;;28.98;29.11
58690;BME280;44470;53.206;-6.106;2023-04-25T11:02:58;101838.03;;;28.79;28.92
58690;BME280;44470;53.206;-6.106;2023-04-25T11:05:35;101882.41;;;28.98;29.06
58690;BME280;44470;53.206;-6.106;2023-04-25T11:08:02;101878.63;;;29.03;28.87
58690;BME280;44470;53.206;-6.106;2023-04-25T11:10:32;101871.50;;;29.00;29.19
58690;BME280;44470;53.206;-6.106;2023-04-25T11:13:00;101880.44;;;29.02;28.98
58690;BME280;44470;53.206;-6.106;2023-04-25T11:15:26;101883.28;;;28.99;29.06
58690;BME280;44470;53.206;-6.106;2023-04-25T11:17:52;101884.94;;;29.03;29.06
58690;BME280;44470;53.206;-6.106;2023-04-25T11:20:18;101883.16;;;29.02;28.94
58690;BME280;44470;53.206;-6.106;2023-04-25T11:22:45;101874.22;;;29.00;29.24
58690;BME280;44470;53.206;-6.106;2023-04-25T11:25:12;101872.19;;;29.05;28.98
58690;BME280;44470;53.206;-6.106;2023-04-25T11:27:59;101861.47;;;29.02;29.01
58690;BME280;44470;53.206;-6.106;2023-04-25T11:30:26;101861.34;;;29.05;28.93
58690;BME280;44470;53.206;-6.106;2023-04-25T11:32:53;101863.50;;;28.97;28.93
58690;BME280;44470;53.206;-6.106;2023-04-25T11:35:20;101819.38;;;28.71;28.95
58690;BME280;44470;53.206;-6.106;2023-04-25T11:37:48;101865.25;;;28.98;29.00
58690;BME280;44470;53.206;-6.106;2023-04-25T11:40:14;101820.81;;;28.80;28.99
58690;BME280;44470;53.206;-6.106;2023-04-25T11:42:43;101861.47;;;29.02;28.81
58690;BME280;44470;53.206;-6.106;2023-04-25T11:45:09;101819.03;;;28.80;29.01
58690;BME280;44470;53.206;-6.106;2023-04-25T11:47:36;101868.78;;;29.00;29.24
58690;BME280;44470;53.206;-6.106;2023-04-25T11:50:07;101848.50;;;28.88;29.35
58690;BME280;44470;53.206;-6.106;2023-04-25T11:52:44;101852.53;;;29.00;28.97
58690;BME280;44470;53.206;-6.106;2023-04-25T11:55:13;101850.72;;;29.00;28.97
58690;BME280;44470;53.206;-6.106;2023-04-25T11:57:40;101851.31;;;29.07;29.16
58690;BME280;44470;53.206;-6.106;2023-04-25T12:00:14;101843.19;;;29.07;28.83
58690;BME280;44470;53.206;-6.106;2023-04-25T12:02:44;101852.28;;;29.06;28.86
58690;BME280;44470;53.206;-6.106;2023-04-25T12:05:11;101848.88;;;29.01;29.10
58690;BME280;44470;53.206;-6.106;2023-04-25T12:07:37;101854.28;;;29.01;29.20
58690;BME280;44470;53.206;-6.106;2023-04-25T12:12:33;101850.50;;;29.05;29.12
58690;BME280;44470;53.206;-6.106;2023-04-25T12:15:14;101848.88;;;29.01;29.35
58690;BME280;44470;53.206;-6.106;2023-04-25T12:17:42;101844.53;;;28.97;29.17
58690;BME280;44470;53.206;-6.106;2023-04-25T12:20:13;101848.75;;;29.04;29.03
58690;BME280;44470;53.206;-6.106;2023-04-25T12:22:41;101819.53;;;28.90;28.84
58690;BME280;44470;53.206;-6.106;2023-04-25T12:25:11;101852.28;;;29.06;28.81
58690;BME280;44470;53.206;-6.106;2023-04-25T12:27:36;101843.31;;;29.04;28.69
58690;BME280;44470;53.206;-6.106;2023-04-25T12:30:02;101852.47;;;29.02;28.81
58690;BME280;44470;53.206;-6.106;2023-04-25T12:32:28;101851.66;;;28.99;29.05
58690;BME280;44470;53.206;-6.106;2023-04-25T12:34:54;101852.41;;;29.03;28.74
58690;BME280;44470;53.206;-6.106;2023-04-25T12:37:19;101853.22;;;29.05;28.89
58690;BME280;44470;53.206;-6.106;2023-04-25T12:39:45;101853.47;;;28.99;28.89
58690;BME280;44470;53.206;-6.106;2023-04-25T12:42:11;101848.88;;;29.01;28.93
58690;BME280;44470;53.206;-6.106;2023-04-25T12:44:37;101791.34;;;28.72;28.86
58690;BME280;44470;53.206;-6.106;2023-04-25T12:47:03;101837.22;;;28.99;29.00
58690;BME280;44470;53.206;-6.106;2023-04-25T12:49:29;101790.38;;;28.73;28.87
58690;BME280;44470;53.206;-6.106;2023-04-25T12:51:54;101839.94;;;28.99;29.05
58690;BME280;44470;53.206;-6.106;2023-04-25T12:54:20;101805.53;;;28.79;29.18
58690;BME280;44470;53.206;-6.106;2023-04-25T12:56:45;101840.94;;;28.96;29.08
58690;BME280;44470;53.206;-6.106;2023-04-25T12:59:11;101845.34;;;28.99;28.98
58690;BME280;44470;53.206;-6.106;2023-04-25T13:01:37;101861.88;;;28.93;29.03